createdAt,value
2018-02-10T00:02:24.049Z,8.20
2018-02-10T00:04:51.998Z,7.77
2018-02-10T00:07:19.961Z,7.99
2018-02-10T00:09:47.951Z,8.35
2018-02-10T00:12:15.883Z,8.38
2018-02-10T00:14:43.866Z,8.06
2018-02-10T00:17:11.938Z,7.44
2018-02-10T00:19:39.882Z,6.81
2018-02-10T00:22:07.955Z,7.32
2018-02-10T00:24:36.736Z,7.51
2018-02-10T00:27:04.654Z,7.26
2018-02-10T00:29:32.606Z,7.44
2018-02-10T00:32:00.575Z,7.62
2018-02-10T00:34:28.590Z,7.72
2018-02-10T00:36:56.629Z,7.14
2018-02-10T00:39:24.523Z,7.10
2018-02-10T00:41:52.686Z,7.25
2018-02-10T00:44:20.698Z,6.93
2018-02-10T00:46:48.700Z,6.72
2018-02-10T00:49:16.646Z,7.18
2018-02-10T00:51:44.633Z,7.43
2018-02-10T00:54:12.697Z,7.59
2018-02-10T00:56:40.706Z,7.68
2018-02-10T00:59:08.625Z,7.74
2018-02-10T01:01:36.577Z,7.97
2018-02-10T01:04:04.512Z,7.89
2018-02-10T01:06:32.482Z,7.81
2018-02-10T01:09:00.435Z,7.35
2018-02-10T01:11:28.329Z,7.15
2018-02-10T01:13:56.349Z,6.94
2018-02-10T01:16:24.307Z,6.63
2018-02-10T01:18:52.297Z,6.68
2018-02-10T01:21:20.294Z,6.94
2018-02-10T01:23:48.259Z,7.41
2018-02-10T01:26:16.599Z,7.30
2018-02-10T01:28:44.579Z,7.03
2018-02-10T01:31:12.534Z,7.52
2018-02-10T01:33:40.502Z,6.94
2018-02-10T01:36:08.490Z,7.12
2018-02-10T01:38:36.469Z,7.23
2018-02-10T01:41:04.430Z,7.30
2018-02-10T01:43:32.352Z,7.40
2018-02-10T01:46:00.282Z,7.77
2018-02-10T01:48:28.474Z,7.78
2018-02-10T01:50:56.442Z,7.94
2018-02-10T01:53:24.387Z,7.56
2018-02-10T01:55:52.345Z,7.68
2018-02-10T01:58:20.303Z,7.49
2018-02-10T02:00:48.282Z,7.10
2018-02-10T02:03:16.291Z,7.38
2018-02-10T02:05:44.264Z,7.64
2018-02-10T02:08:12.225Z,7.68
2018-02-10T02:10:40.234Z,7.78
2018-02-10T02:13:08.186Z,7.94
2018-02-10T02:15:36.207Z,8.10
2018-02-10T02:18:04.189Z,8.01
2018-02-10T02:20:32.197Z,8.25
2018-02-10T02:23:00.155Z,8.21
2018-02-10T02:25:28.186Z,8.37
2018-02-10T02:27:56.810Z,8.48
2018-02-10T02:30:24.844Z,8.36
2018-02-10T02:32:52.847Z,8.25
2018-02-10T02:35:20.802Z,8.23
2018-02-10T02:37:48.790Z,8.25
2018-02-10T02:40:16.812Z,8.11
2018-02-10T02:42:44.834Z,7.88
2018-02-10T02:45:12.806Z,7.36
2018-02-10T02:47:40.761Z,7.64
2018-02-10T02:50:08.816Z,7.94
2018-02-10T02:52:36.750Z,7.77
2018-02-10T02:55:04.770Z,7.07
2018-02-10T02:57:32.694Z,6.60
2018-02-10T03:00:00.681Z,6.13
2018-02-10T03:02:28.715Z,5.61
2018-02-10T03:04:56.709Z,5.45
2018-02-10T03:07:24.703Z,4.95
2018-02-10T03:09:53.523Z,4.62
2018-02-10T03:12:21.684Z,4.62
2018-02-10T03:14:49.671Z,5.56
2018-02-10T03:17:17.650Z,5.76
2018-02-10T03:19:45.652Z,6.28
2018-02-10T03:22:13.675Z,6.92
2018-02-10T03:24:41.674Z,6.65
2018-02-10T03:27:09.666Z,6.53
2018-02-10T03:29:37.857Z,6.63
2018-02-10T03:32:05.803Z,6.68
2018-02-10T03:34:33.809Z,6.68
2018-02-10T03:37:01.758Z,6.45
2018-02-10T03:39:29.723Z,6.42
2018-02-10T03:41:57.729Z,6.56
2018-02-10T03:44:25.806Z,6.33
2018-02-10T03:46:53.835Z,6.40
2018-02-10T03:49:21.877Z,6.54
2018-02-10T03:51:49.836Z,6.53
2018-02-10T03:54:17.790Z,6.56
2018-02-10T03:56:45.908Z,6.19
2018-02-10T03:59:13.850Z,6.45
2018-02-10T04:01:41.785Z,7.09
2018-02-10T04:04:09.658Z,7.13
2018-02-10T04:06:37.619Z,6.65
2018-02-10T04:09:05.666Z,6.71
2018-02-10T04:11:33.639Z,6.41
2018-02-10T04:14:01.675Z,6.79
2018-02-10T04:16:29.650Z,7.26
2018-02-10T04:18:57.602Z,7.35
2018-02-10T04:21:25.581Z,7.52
2018-02-10T04:23:53.623Z,7.79
2018-02-10T04:26:21.570Z,7.24
2018-02-10T04:28:49.491Z,7.85
2018-02-10T04:31:18.394Z,7.89
2018-02-10T04:33:46.378Z,7.61
2018-02-10T04:36:14.382Z,7.53
2018-02-10T04:38:42.415Z,7.62
2018-02-10T04:41:10.370Z,7.76
2018-02-10T04:43:38.323Z,7.72
2018-02-10T04:46:07.541Z,7.59
2018-02-10T04:48:35.527Z,7.70
2018-02-10T04:51:03.527Z,7.68
2018-02-10T04:53:32.403Z,7.57
2018-02-10T04:56:00.356Z,6.66
2018-02-10T04:58:28.314Z,5.71
2018-02-10T05:00:56.295Z,6.25
2018-02-10T05:03:24.287Z,6.70
2018-02-10T05:05:52.251Z,6.75
2018-02-10T05:08:20.217Z,6.00
2018-02-10T05:10:48.192Z,5.54
2018-02-10T05:13:16.241Z,5.57
2018-02-10T05:15:44.233Z,5.50
2018-02-10T05:18:12.258Z,5.66
2018-02-10T05:20:40.234Z,5.73
2018-02-10T05:23:08.202Z,5.95
2018-02-10T05:25:36.115Z,6.04
2018-02-10T05:28:04.218Z,6.03
2018-02-10T05:30:32.157Z,5.86
2018-02-10T05:33:00.521Z,5.79
2018-02-10T05:35:28.499Z,6.22
2018-02-10T05:37:56.457Z,6.18
2018-02-10T05:40:24.439Z,5.96
2018-02-10T05:42:52.430Z,6.19
2018-02-10T05:45:20.381Z,6.39
2018-02-10T05:47:48.354Z,6.38
2018-02-10T05:50:16.316Z,6.29
2018-02-10T05:52:44.258Z,6.17
2018-02-10T05:55:12.202Z,6.07
2018-02-10T05:57:40.190Z,6.06
2018-02-10T06:00:08.437Z,6.34
2018-02-10T06:02:36.429Z,6.50
2018-02-10T06:05:04.406Z,6.11
2018-02-10T06:07:32.452Z,6.48
2018-02-10T06:10:00.492Z,6.60
2018-02-10T06:12:28.408Z,6.68
2018-02-10T06:14:56.428Z,6.35
2018-02-10T06:17:24.437Z,6.37
2018-02-10T06:19:52.378Z,6.63
2018-02-10T06:22:20.362Z,6.56
2018-02-10T06:24:48.427Z,6.52
2018-02-10T06:27:16.444Z,6.45
2018-02-10T06:29:44.462Z,6.58
2018-02-10T06:32:12.396Z,6.91
2018-02-10T06:34:40.613Z,6.82
2018-02-10T06:37:08.601Z,6.79
2018-02-10T06:39:36.587Z,6.76
2018-02-10T06:42:04.533Z,7.13
2018-02-10T06:44:32.502Z,6.91
2018-02-10T06:47:00.575Z,6.78
2018-02-10T06:49:28.578Z,6.93
2018-02-10T06:51:56.545Z,7.22
2018-02-10T06:54:24.418Z,7.55
2018-02-10T06:56:52.474Z,7.65
2018-02-10T06:59:20.678Z,7.11
2018-02-10T07:01:48.998Z,7.41
2018-02-10T07:04:17.008Z,6.97
2018-02-10T07:06:45.012Z,7.10
2018-02-10T07:09:13.131Z,7.32
2018-02-10T07:11:41.262Z,7.45
2018-02-10T07:14:09.266Z,7.84
2018-02-10T07:16:37.306Z,7.92
2018-02-10T07:19:05.448Z,7.89
2018-02-10T07:21:33.435Z,8.19
2018-02-10T07:24:01.458Z,8.02
2018-02-10T07:26:29.510Z,7.90
2018-02-10T07:28:57.608Z,7.98
2018-02-10T07:31:25.597Z,8.03
2018-02-10T07:33:53.589Z,8.22
2018-02-10T07:36:21.805Z,7.36
2018-02-10T07:38:49.800Z,7.21
2018-02-10T07:41:17.728Z,7.51
2018-02-10T07:43:45.703Z,7.79
2018-02-10T07:46:13.648Z,7.62
2018-02-10T07:48:41.606Z,7.45
2018-02-10T07:51:09.547Z,7.06
2018-02-10T07:53:37.538Z,7.15
2018-02-10T07:56:05.599Z,7.01
2018-02-10T07:58:33.559Z,7.11
2018-02-10T08:01:01.465Z,7.45
2018-02-10T08:03:29.735Z,7.51
2018-02-10T08:05:57.780Z,7.77
2018-02-10T08:08:25.773Z,8.00
2018-02-10T08:10:53.718Z,8.04
2018-02-10T08:13:21.684Z,7.91
2018-02-10T08:15:49.680Z,7.82
2018-02-10T08:18:17.596Z,7.98
2018-02-10T08:20:45.533Z,8.05
2018-02-10T08:23:13.579Z,7.87
2018-02-10T08:25:41.537Z,7.57
2018-02-10T08:28:09.554Z,8.02
2018-02-10T08:30:37.529Z,7.94
2018-02-10T08:33:05.540Z,8.37
2018-02-10T08:35:33.495Z,8.14
2018-02-10T08:38:01.569Z,8.30
2018-02-10T08:40:29.527Z,8.52
2018-02-10T08:42:57.615Z,8.93
2018-02-10T08:45:25.842Z,8.67
2018-02-10T08:47:53.821Z,9.05
2018-02-10T08:50:21.770Z,9.22
2018-02-10T08:52:49.726Z,9.17
2018-02-10T08:55:17.754Z,8.73
2018-02-10T08:57:45.733Z,8.43
2018-02-10T09:00:13.763Z,8.60
2018-02-10T09:02:41.699Z,9.01
2018-02-10T09:05:10.178Z,9.47
2018-02-10T09:07:38.150Z,9.72
2018-02-10T09:10:06.084Z,10.00
2018-02-10T09:12:34.093Z,10.15
2018-02-10T09:15:02.219Z,10.12
2018-02-10T09:17:30.180Z,9.34
2018-02-10T09:19:58.235Z,9.26
2018-02-10T09:22:26.233Z,9.31
2018-02-10T09:24:54.176Z,9.50
2018-02-10T09:27:22.201Z,9.38
2018-02-10T09:29:50.202Z,8.55
2018-02-10T09:32:18.151Z,8.93
2018-02-10T09:34:46.201Z,8.94
2018-02-10T09:37:14.191Z,9.36
2018-02-10T09:39:42.560Z,8.44
2018-02-10T09:42:10.593Z,8.41
2018-02-10T09:44:38.535Z,8.51
2018-02-10T09:47:06.560Z,9.07
2018-02-10T09:49:34.465Z,8.05
2018-02-10T09:52:02.474Z,8.26
2018-02-10T09:54:30.427Z,8.70
2018-02-10T09:56:58.395Z,9.32
2018-02-10T09:59:26.406Z,9.18
2018-02-10T10:01:54.355Z,8.84
2018-02-10T10:04:22.360Z,8.21
2018-02-10T10:06:50.926Z,9.07
2018-02-10T10:09:18.942Z,9.49
2018-02-10T10:11:46.981Z,9.52
2018-02-10T10:14:14.968Z,9.64
2018-02-10T10:16:42.946Z,10.12
2018-02-10T10:19:11.065Z,10.10
2018-02-10T10:21:39.020Z,10.29
2018-02-10T10:24:07.106Z,9.79
2018-02-10T10:26:35.051Z,9.88
2018-02-10T10:29:03.163Z,9.89
2018-02-10T10:31:31.285Z,10.21
2018-02-10T10:33:59.397Z,10.27
2018-02-10T10:36:27.434Z,9.61
2018-02-10T10:38:55.611Z,9.27
2018-02-10T10:41:23.586Z,9.10
2018-02-10T10:43:51.627Z,8.83
2018-02-10T10:46:19.575Z,8.28
2018-02-10T10:48:47.494Z,8.73
2018-02-10T10:51:15.497Z,9.08
2018-02-10T10:53:43.485Z,9.53
2018-02-10T10:56:11.482Z,9.11
2018-02-10T10:58:39.569Z,9.80
2018-02-10T11:01:07.706Z,9.39
2018-02-10T11:03:35.762Z,9.74
2018-02-10T11:06:03.790Z,9.62
2018-02-10T11:08:32.302Z,9.48
2018-02-10T11:11:00.344Z,9.94
2018-02-10T11:13:28.362Z,9.96
2018-02-10T11:15:56.428Z,10.02
2018-02-10T11:18:24.451Z,9.61
2018-02-10T11:20:52.502Z,9.82
2018-02-10T11:23:20.498Z,10.16
2018-02-10T11:25:48.486Z,9.96
2018-02-10T11:28:16.506Z,10.14
2018-02-10T11:30:44.633Z,10.32
2018-02-10T11:33:12.556Z,10.47
2018-02-10T11:35:40.524Z,10.52
2018-02-10T11:38:08.494Z,10.48
2018-02-10T11:40:36.481Z,10.51
2018-02-10T11:43:04.695Z,10.29
2018-02-10T11:45:32.679Z,10.78
2018-02-10T11:48:00.677Z,10.85
2018-02-10T11:50:28.666Z,10.71
2018-02-10T11:52:56.638Z,9.84
2018-02-10T11:55:24.597Z,9.98
2018-02-10T11:57:52.657Z,9.60
2018-02-10T12:00:20.621Z,9.16
2018-02-10T12:02:48.599Z,9.48
2018-02-10T12:05:16.598Z,9.54
2018-02-10T12:07:44.600Z,9.62
2018-02-10T12:10:12.980Z,9.99
2018-02-10T12:12:40.977Z,10.13
2018-02-10T12:15:09.007Z,10.43
2018-02-10T12:17:36.944Z,9.72
2018-02-10T12:20:04.970Z,9.87
2018-02-10T12:22:32.982Z,9.39
2018-02-10T12:25:01.009Z,9.61
2018-02-10T12:27:29.054Z,9.49
2018-02-10T12:29:57.077Z,9.67
2018-02-10T12:32:25.067Z,10.02
2018-02-10T12:34:53.082Z,9.53
2018-02-10T12:37:21.102Z,9.84
2018-02-10T12:39:49.075Z,9.98
2018-02-10T12:42:17.074Z,9.94
2018-02-10T12:44:45.270Z,9.58
2018-02-10T12:47:13.451Z,10.02
2018-02-10T12:49:41.530Z,10.27
2018-02-10T12:52:09.453Z,10.33
2018-02-10T12:54:37.439Z,10.37
2018-02-10T12:57:05.482Z,10.34
2018-02-10T12:59:33.495Z,10.32
2018-02-10T13:02:01.489Z,10.36
2018-02-10T13:04:29.500Z,9.52
2018-02-10T13:06:57.505Z,9.20
2018-02-10T13:09:25.557Z,8.94
2018-02-10T13:11:53.874Z,9.18
2018-02-10T13:14:21.826Z,9.63
2018-02-10T13:16:49.805Z,9.51
2018-02-10T13:19:17.706Z,9.32
2018-02-10T13:21:45.680Z,9.82
2018-02-10T13:24:13.657Z,9.87
2018-02-10T13:26:41.610Z,9.95
2018-02-10T13:29:09.581Z,10.05
2018-02-10T13:31:37.554Z,9.97
2018-02-10T13:34:05.582Z,10.10
2018-02-10T13:36:33.570Z,10.02
2018-02-10T13:39:01.582Z,10.12
2018-02-10T13:41:29.547Z,9.96
2018-02-10T13:43:57.546Z,9.65
2018-02-10T13:46:25.866Z,10.02
2018-02-10T13:48:53.826Z,8.87
2018-02-10T13:51:21.839Z,9.36
2018-02-10T13:53:49.754Z,9.43
2018-02-10T13:56:17.746Z,9.12
2018-02-10T13:58:45.802Z,9.28
2018-02-10T14:01:13.854Z,9.57
2018-02-10T14:03:41.870Z,9.61
2018-02-10T14:06:09.897Z,9.63
2018-02-10T14:08:37.863Z,9.62
2018-02-10T14:11:05.774Z,9.70
2018-02-10T14:13:34.139Z,8.99
2018-02-10T14:16:02.070Z,8.90
2018-02-10T14:18:30.042Z,8.77
2018-02-10T14:20:58.039Z,8.84
2018-02-10T14:23:26.041Z,9.02
2018-02-10T14:25:54.044Z,8.96
2018-02-10T14:28:22.055Z,8.73
2018-02-10T14:30:49.944Z,8.56
2018-02-10T14:33:18.011Z,8.17
2018-02-10T14:35:45.967Z,8.20
2018-02-10T14:38:13.968Z,8.08
2018-02-10T14:40:41.996Z,8.76
2018-02-10T14:43:09.993Z,9.29
2018-02-10T14:45:37.997Z,9.02
2018-02-10T14:48:06.110Z,9.12
2018-02-10T14:50:34.038Z,9.17
2018-02-10T14:53:02.034Z,7.87
2018-02-10T14:55:29.998Z,7.56
2018-02-10T14:57:58.042Z,7.45
2018-02-10T15:00:26.039Z,7.54
2018-02-10T15:02:54.072Z,8.14
2018-02-10T15:05:22.028Z,7.92
2018-02-10T15:07:50.052Z,8.55
2018-02-10T15:10:18.063Z,8.21
2018-02-10T15:12:46.030Z,7.96
2018-02-10T15:15:14.341Z,8.33
2018-02-10T15:17:42.285Z,8.06
2018-02-10T15:20:10.378Z,8.65
2018-02-10T15:22:38.479Z,8.74
2018-02-10T15:25:06.582Z,9.17
2018-02-10T15:27:34.579Z,9.24
2018-02-10T15:30:14.422Z,8.67
2018-02-10T15:32:54.062Z,8.96
2018-02-10T15:35:22.877Z,8.46
2018-02-10T15:37:50.959Z,9.07
2018-02-10T15:40:18.991Z,8.62
2018-02-10T15:42:46.935Z,7.87
2018-02-10T15:45:14.860Z,8.42
2018-02-10T15:47:42.903Z,9.03
2018-02-10T15:50:10.990Z,9.06
2018-02-10T15:52:38.937Z,8.41
2018-02-10T15:55:06.982Z,8.73
2018-02-10T15:57:35.014Z,8.92
2018-02-10T16:00:04.919Z,8.84
2018-02-10T16:02:32.935Z,9.11
2018-02-10T16:05:00.930Z,8.45
2018-02-10T16:07:28.874Z,8.81
2018-02-10T16:09:56.939Z,8.41
2018-02-10T16:12:25.218Z,8.46
2018-02-10T16:14:53.477Z,8.71
2018-02-10T16:17:21.795Z,8.63
2018-02-10T16:19:49.805Z,8.44
2018-02-10T16:22:17.711Z,8.11
2018-02-10T16:24:45.760Z,8.21
2018-02-10T16:27:13.799Z,8.12
2018-02-10T16:29:41.822Z,8.09
2018-02-10T16:32:09.822Z,8.22
2018-02-10T16:34:37.815Z,8.19
2018-02-10T16:37:05.954Z,8.15
2018-02-10T16:39:33.872Z,7.97
2018-02-10T16:42:01.991Z,8.54
2018-02-10T16:44:30.010Z,8.39
2018-02-10T16:46:58.122Z,8.26
2018-02-10T16:49:26.132Z,8.37
2018-02-10T16:51:54.220Z,7.78
2018-02-10T16:54:22.184Z,7.87
2018-02-10T16:56:50.117Z,7.73
2018-02-10T16:59:18.072Z,8.07
2018-02-10T17:01:46.047Z,7.93
2018-02-10T17:04:14.000Z,8.07
2018-02-10T17:06:41.994Z,8.34
2018-02-10T17:09:10.017Z,7.80
2018-02-10T17:11:37.999Z,8.04
2018-02-10T17:14:05.914Z,8.47
2018-02-10T17:16:33.974Z,8.05
2018-02-10T17:19:02.367Z,8.21
2018-02-10T17:21:30.371Z,7.90
2018-02-10T17:23:58.354Z,8.38
2018-02-10T17:26:26.335Z,7.79
2018-02-10T17:28:54.250Z,8.07
2018-02-10T17:31:22.238Z,8.13
2018-02-10T17:33:50.257Z,7.76
2018-02-10T17:36:18.294Z,8.09
2018-02-10T17:38:46.272Z,8.12
2018-02-10T17:41:14.341Z,8.16
2018-02-10T17:43:42.389Z,8.05
2018-02-10T17:46:10.574Z,8.06
2018-02-10T17:48:38.615Z,7.66
2018-02-10T17:51:06.615Z,7.91
2018-02-10T17:53:34.590Z,8.04
2018-02-10T17:56:02.618Z,8.12
2018-02-10T17:58:30.547Z,7.36
2018-02-10T18:00:58.513Z,7.75
2018-02-10T18:03:26.644Z,7.86
2018-02-10T18:05:54.628Z,7.51
2018-02-10T18:08:22.674Z,7.49
2018-02-10T18:10:50.722Z,7.69
2018-02-10T18:13:18.769Z,7.42
2018-02-10T18:15:46.762Z,7.37
2018-02-10T18:18:14.755Z,8.03
2018-02-10T18:20:43.596Z,7.38
2018-02-10T18:23:11.550Z,7.95
2018-02-10T18:25:39.539Z,7.93
2018-02-10T18:28:07.566Z,7.95
2018-02-10T18:30:35.534Z,8.20
2018-02-10T18:33:03.642Z,8.19
2018-02-10T18:35:31.598Z,8.50
2018-02-10T18:37:59.587Z,8.04
2018-02-10T18:40:27.542Z,7.38
2018-02-10T18:42:55.618Z,7.97
2018-02-10T18:45:23.614Z,7.53
2018-02-10T18:47:51.646Z,7.37
2018-02-10T18:50:19.603Z,6.65
2018-02-10T18:52:47.558Z,7.01
2018-02-10T18:55:15.573Z,6.88
2018-02-10T18:57:43.550Z,7.58
2018-02-10T19:00:11.602Z,6.79
2018-02-10T19:02:39.502Z,6.68
2018-02-10T19:05:07.547Z,7.09
2018-02-10T19:07:35.496Z,7.01
2018-02-10T19:10:03.522Z,6.76
2018-02-10T19:12:31.631Z,6.94
2018-02-10T19:14:59.590Z,7.45
2018-02-10T19:17:27.519Z,7.21
2018-02-10T19:19:55.436Z,7.71
2018-02-10T19:22:23.742Z,7.87
2018-02-10T19:24:51.759Z,8.12
2018-02-10T19:27:20.584Z,8.24
2018-02-10T19:29:48.562Z,7.86
2018-02-10T19:32:16.582Z,8.24
2018-02-10T19:34:44.643Z,8.13
2018-02-10T19:37:13.505Z,7.76
2018-02-10T19:39:41.657Z,7.49
2018-02-10T19:42:09.729Z,7.50
2018-02-10T19:44:37.697Z,7.03
2018-02-10T19:47:05.643Z,7.18
2018-02-10T19:49:33.619Z,7.04
2018-02-10T19:52:01.503Z,7.28
2018-02-10T19:54:29.923Z,7.20
2018-02-10T19:56:58.180Z,7.23
2018-02-10T19:59:26.112Z,7.36
2018-02-10T20:01:54.066Z,7.19
2018-02-10T20:04:21.997Z,7.77
2018-02-10T20:06:49.930Z,7.18
2018-02-10T20:09:17.895Z,7.09
2018-02-10T20:11:45.949Z,6.92
2018-02-10T20:14:13.903Z,7.26
2018-02-10T20:16:41.807Z,7.23
2018-02-10T20:19:09.768Z,7.77
2018-02-10T20:21:37.853Z,7.40
2018-02-10T20:24:06.373Z,7.96
2018-02-10T20:26:34.379Z,7.73
2018-02-10T20:29:02.466Z,7.25
2018-02-10T20:31:30.630Z,7.68
2018-02-10T20:33:58.638Z,7.26
2018-02-10T20:36:26.586Z,7.40
2018-02-10T20:38:54.631Z,7.33
2018-02-10T20:41:22.635Z,8.21
2018-02-10T20:43:50.727Z,8.05
2018-02-10T20:46:18.847Z,8.01
2018-02-10T20:48:46.778Z,8.70
2018-02-10T20:51:14.719Z,9.11
2018-02-10T20:53:42.748Z,8.53
2018-02-10T20:56:10.737Z,8.86
2018-02-10T20:58:38.954Z,8.84
2018-02-10T21:01:06.922Z,8.38
2018-02-10T21:03:34.846Z,8.64
2018-02-10T21:06:02.870Z,8.02
2018-02-10T21:08:30.970Z,8.40
2018-02-10T21:10:58.885Z,8.96
2018-02-10T21:13:26.916Z,9.17
2018-02-10T21:15:54.946Z,7.92
2018-02-10T21:18:22.927Z,7.27
2018-02-10T21:20:50.906Z,7.81
2018-02-10T21:23:18.923Z,8.12
2018-02-10T21:25:47.487Z,8.18
2018-02-10T21:28:15.450Z,7.49
2018-02-10T21:30:43.383Z,7.74
2018-02-10T21:33:11.436Z,7.48
2018-02-10T21:35:39.398Z,7.34
2018-02-10T21:38:07.321Z,7.21
2018-02-10T21:40:35.271Z,6.31
2018-02-10T21:43:03.290Z,6.70
2018-02-10T21:45:31.250Z,7.37
2018-02-10T21:47:59.172Z,7.72
2018-02-10T21:50:27.086Z,6.72
2018-02-10T21:52:55.074Z,7.19
2018-02-10T21:55:23.071Z,7.59
2018-02-10T21:57:51.064Z,7.51
2018-02-10T22:00:19.106Z,7.62
2018-02-10T22:02:47.105Z,7.60
2018-02-10T22:05:15.123Z,7.37
2018-02-10T22:07:43.090Z,6.97
2018-02-10T22:10:11.043Z,6.94
2018-02-10T22:12:39.030Z,7.11
2018-02-10T22:15:07.025Z,7.21
2018-02-10T22:17:34.949Z,6.63
2018-02-10T22:20:02.890Z,7.45
2018-02-10T22:22:30.892Z,7.06
2018-02-10T22:24:58.887Z,7.61
2018-02-10T22:27:27.424Z,7.98
2018-02-10T22:29:55.615Z,7.37
2018-02-10T22:32:23.610Z,7.91
2018-02-10T22:34:51.616Z,8.29
2018-02-10T22:37:19.604Z,8.29
2018-02-10T22:39:47.554Z,7.55
2018-02-10T22:42:15.519Z,7.97
2018-02-10T22:44:43.542Z,8.06
2018-02-10T22:47:11.467Z,8.13
2018-02-10T22:49:39.386Z,8.16
2018-02-10T22:52:07.331Z,7.39
2018-02-10T22:54:35.335Z,7.81
2018-02-10T22:57:03.307Z,6.87
2018-02-10T22:59:31.399Z,7.50
2018-02-10T23:01:59.437Z,7.43
2018-02-10T23:04:27.423Z,7.69
2018-02-10T23:06:55.545Z,7.98
2018-02-10T23:09:23.563Z,8.26
2018-02-10T23:11:51.599Z,8.39
2018-02-10T23:14:19.649Z,7.77
2018-02-10T23:16:47.773Z,6.98
2018-02-10T23:19:15.830Z,6.62
2018-02-10T23:21:43.942Z,6.67
2018-02-10T23:24:11.934Z,7.20
2018-02-10T23:26:39.947Z,7.38
2018-02-10T23:29:08.265Z,7.64
2018-02-10T23:31:36.214Z,7.98
2018-02-10T23:34:04.265Z,7.39
2018-02-10T23:36:32.359Z,7.23
2018-02-10T23:39:00.258Z,7.04
2018-02-10T23:41:28.224Z,7.11
2018-02-10T23:43:56.151Z,6.83
2018-02-10T23:46:24.097Z,7.03
2018-02-10T23:48:52.091Z,6.31
2018-02-10T23:51:20.225Z,6.78
2018-02-10T23:53:48.232Z,7.38
2018-02-10T23:56:16.208Z,7.31
2018-02-10T23:58:44.195Z,6.67
